KSDB

Sandberg Airport

Sandberg, California, USA
METAR KSDB 220453Z AUTO 34020G30KT 10SM 23/07 A3012 RMK AO2 PK WND 35030/0450 SLP135 T02330072 $
Observed Flight Rules
Jun-22 @ 04:53 UTC (53 minutes ago)
Wind Visibility
340° at 20 knots
 Gusting to 30 knots
10 miles
Temperatures Readings
Current 23°C / 73°F
Dewpoint 7°C / 45°F
Humidity 36%
Altimeter 30.12" Hg
Pressure 1013.5 hPa
Elevation 1377
METAR KSDB 220453Z AUTO 34020G30KT 10SM 23/07 A3012 RMK AO2 PK WND 35030/0450 SLP135 T02330072 $
Observed Flight Rules
Jun-22 @ 04:53 UTC
(53 minutes ago)
Wind Visibility
340° at 20 knots
 Gusting to 30 knots
10 miles
Temperature Dewpoint
23°C / 73°F 7°C / 45°F
Humidity Altimeter Pressure
36% 30.12" Hg 1013.5 hPa